Time;durP1;ratioP1;P1;durP2;ratioP2;P2;SDS_P1;SDS_P2;PMS_P1;PMS_P2;Temp;Humidity;BMP_temperature;BMP_pressure;BME280_temperature;BME280_humidity;BME280_pressure;Samples;Min_cycle;Max_cycle;Signal;HPM_P1;HPM_P2
2021/11/09 00:01:56;;;;;;;93.55;25.63;;;;;;;7.63;100.00;102485.66;5066482;28;20056;-74
2021/11/09 00:04:25;;;;;;;59.53;21.55;;;;;;;7.71;100.00;102509.94;5066040;28;20503;-74
2021/11/09 00:12:26;;;;;;;58.88;21.55;;;;;;;7.72;100.00;102516.94;5066192;28;20121;-75
2021/11/09 00:14:52;;;;;;;66.22;21.20;;;;;;;7.71;100.00;102515.25;5066051;28;20036;-74
2021/11/09 00:17:17;;;;;;;56.25;19.48;;;;;;;7.67;100.00;102495.97;5066158;28;20039;-74
2021/11/09 00:19:43;;;;;;;53.65;19.80;;;;;;;7.73;100.00;102514.19;5067160;28;20029;-75
2021/11/09 00:22:08;;;;;;;49.57;19.73;;;;;;;7.74;100.00;102507.06;5066098;28;20352;-75
2021/11/09 00:24:34;;;;;;;67.50;20.30;;;;;;;7.68;100.00;102494.16;5066379;28;20042;-74
2021/11/09 00:26:59;;;;;;;73.80;21.43;;;;;;;7.71;100.00;102512.59;5048674;28;20182;-74
2021/11/09 00:29:25;;;;;;;50.28;17.90;;;;;;;7.70;100.00;102514.41;5066068;28;20041;-74
2021/11/09 00:31:50;;;;;;;49.97;19.40;;;;;;;7.70;100.00;102514.41;5066058;28;20131;-74
2021/11/09 00:34:15;;;;;;;42.87;16.03;;;;;;;7.74;100.00;102501.75;5065845;28;20045;-75
2021/11/09 00:36:41;;;;;;;46.43;16.53;;;;;;;7.69;100.00;102491.41;5066902;28;20052;-74
2021/11/09 00:39:08;;;;;;;32.27;12.10;;;;;;;7.66;100.00;102499.59;5066057;28;20289;-75
2021/11/09 00:41:34;;;;;;;41.92;13.85;;;;;;;7.61;100.00;102483.94;5066180;28;20060;-74
2021/11/09 00:43:59;;;;;;;33.70;12.17;;;;;;;7.71;100.00;102510.78;5065936;28;20036;-75
2021/11/09 00:46:24;;;;;;;43.00;12.83;;;;;;;7.73;100.00;102492.94;5067059;28;20024;-75
2021/11/09 00:48:50;;;;;;;33.38;12.00;;;;;;;7.68;100.00;102488.84;5065904;28;20174;-74
2021/11/09 00:51:16;;;;;;;39.80;12.93;;;;;;;7.66;100.00;102472.16;5065871;28;20109;-75
2021/11/09 00:53:41;;;;;;;37.22;13.45;;;;;;;7.66;100.00;102466.84;5048917;28;20078;-75
2021/11/09 00:56:08;;;;;;;38.37;13.13;;;;;;;7.68;100.00;102472.91;5066850;28;20072;-75
2021/11/09 00:58:33;;;;;;;47.38;15.95;;;;;;;7.67;100.00;102465.88;5065931;28;20472;-75
2021/11/09 01:00:59;;;;;;;41.87;15.00;;;;;;;7.66;100.00;102454.41;5066083;28;20048;-74
2021/11/09 01:03:24;;;;;;;42.50;14.50;;;;;;;7.61;100.00;102441.41;5065584;28;20059;-75
2021/11/09 01:05:50;;;;;;;42.73;15.47;;;;;;;7.58;100.00;102430.13;5066105;28;20097;-75
2021/11/09 01:08:18;;;;;;;46.50;15.63;;;;;;;7.58;100.00;102438.09;5065868;28;20032;-75
2021/11/09 01:10:51;;;;;;;52.47;18.23;;;;;;;7.63;100.00;102443.13;5065747;28;20351;-75
2021/11/09 01:13:17;;;;;;;61.97;16.58;;;;;;;7.63;100.00;102433.31;5065446;28;20056;-75
2021/11/09 01:15:50;;;;;;;;;;;;;;;7.56;100.00;102442.66;5067903;28;20043;-75
2021/11/09 01:18:21;;;;;;;50.60;15.75;;;;;;;7.64;100.00;102471.41;5066652;28;20618;-75
2021/11/09 01:20:46;;;;;;;56.80;19.80;;;;;;;7.64;100.00;102472.25;5065805;28;20041;-75
2021/11/09 01:23:13;;;;;;;53.08;18.25;;;;;;;7.68;100.00;102488.84;5066428;28;20144;-75
2021/11/09 01:25:39;;;;;;;41.65;16.10;;;;;;;7.63;100.00;102477.66;5064944;28;20082;-74
2021/11/09 01:28:06;;;;;;;44.22;14.60;;;;;;;7.50;100.00;102459.03;5066468;28;20123;-75
2021/11/09 01:30:31;;;;;;;;;;;;;;;7.57;100.00;102463.84;5066914;28;20397;-75
2021/11/09 01:32:57;;;;;;;;;;;;;;;7.49;100.00;102452.00;5065884;28;19974;-75
2021/11/09 01:35:23;;;;;;;39.97;16.93;;;;;;;7.42;100.00;102438.25;5065235;28;19919;-75
2021/11/09 01:37:50;;;;;;;37.80;12.68;;;;;;;7.36;100.00;102433.34;5066614;28;20035;-75
2021/11/09 01:40:17;;;;;;;26.13;11.00;;;;;;;7.36;100.00;102431.53;5069045;28;20033;-75
2021/11/09 01:42:42;;;;;;;38.50;12.55;;;;;;;7.37;100.00;102429.72;5069028;28;20036;-75
2021/11/09 01:45:10;;;;;;;30.25;12.00;;;;;;;7.46;100.00;102434.44;5052151;28;20093;-75
2021/11/09 01:47:37;;;;;;;26.00;10.45;;;;;;;7.37;100.00;102412.00;5068928;28;20055;-75
2021/11/09 01:50:05;;;;;;;28.95;11.23;;;;;;;7.35;100.00;102402.41;5068767;28;20048;-75
2021/11/09 01:52:30;;;;;;;23.83;10.55;;;;;;;7.25;100.00;102386.22;5068789;28;20089;-75
2021/11/09 01:54:56;;;;;;;26.73;9.57;;;;;;;7.38;100.00;102402.22;5068552;28;20040;-75
2021/11/09 01:57:22;;;;;;;26.35;9.40;;;;;;;7.40;100.00;102410.94;5068732;28;20374;-75
2021/11/09 01:59:48;;;;;;;26.90;9.47;;;;;;;7.34;100.00;102395.41;5068660;28;20465;-75
2021/11/09 02:02:14;;;;;;;28.33;11.35;;;;;;;7.30;100.00;102389.44;5068702;28;20892;-75
2021/11/09 02:04:40;;;;;;;24.15;10.95;;;;;;;7.34;100.00;102398.91;5067309;28;20032;-75
2021/11/09 02:07:06;;;;;;;27.98;10.52;;;;;;;7.35;100.00;102400.63;5069448;28;20024;-76
2021/11/09 02:09:31;;;;;;;38.45;12.48;;;;;;;7.42;100.00;102406.38;5051862;28;20037;-75
2021/11/09 02:11:56;;;;;;;22.70;9.50;;;;;;;7.38;100.00;102407.53;5068632;28;20032;-75
2021/11/09 02:14:22;;;;;;;26.27;11.13;;;;;;;7.40;100.00;102408.28;5051529;28;20063;-75
2021/11/09 02:16:50;;;;;;;22.53;9.60;;;;;;;7.34;100.00;102400.72;5069253;28;20446;-76
2021/11/09 02:19:15;;;;;;;23.35;10.35;;;;;;;7.26;100.00;102389.72;5068642;28;20385;-75
2021/11/09 02:21:41;;;;;;;31.42;9.63;;;;;;;7.25;100.00;102382.72;5068223;28;20052;-76
2021/11/09 02:24:06;;;;;;;23.75;9.35;;;;;;;7.24;100.00;102379.22;5067417;28;20435;-76
2021/11/09 02:26:32;;;;;;;21.00;9.23;;;;;;;7.17;100.00;102373.44;5068392;28;20012;-76
2021/11/09 02:28:59;;;;;;;24.48;9.93;;;;;;;7.22;100.00;102383.78;5068351;28;20059;-75
2021/11/09 02:31:28;;;;;;;28.10;10.95;;;;;;;7.22;100.00;102391.75;5068203;28;20093;-75
2021/11/09 02:33:53;;;;;;;22.13;9.15;;;;;;;7.15;100.00;102374.50;5067950;28;20048;-76
2021/11/09 02:36:19;;;;;;;23.50;9.13;;;;;;;7.07;100.00;102359.09;5067793;28;20517;-76
2021/11/09 02:38:47;;;;;;;22.52;8.95;;;;;;;7.05;100.00;102350.34;5069115;28;20037;-76
2021/11/09 02:41:13;;;;;;;20.95;8.10;;;;;;;7.00;100.00;102347.16;5068162;28;20349;-76
2021/11/09 02:43:39;;;;;;;18.00;8.90;;;;;;;6.93;100.00;102340.50;5067720;28;20033;-75
2021/11/09 02:48:44;;;;;;;24.52;9.73;;;;;;;6.91;100.00;102345.94;5067630;28;20366;-76
2021/11/09 02:51:14;;;;;;;21.40;9.88;;;;;;;6.92;100.00;102352.94;5050869;28;20071;-76
2021/11/09 02:53:42;;;;;;;21.08;9.65;;;;;;;6.88;100.00;102345.28;5067568;28;20054;-76
2021/11/09 02:56:18;;;;;;;19.90;7.85;;;;;;;6.93;100.00;102357.31;5067831;28;20050;-76
2021/11/09 02:58:51;;;;;;;18.70;7.95;;;;;;;6.88;100.00;102355.91;5069115;28;20040;-76
2021/11/09 03:01:27;;;;;;;22.95;10.07;;;;;;;6.93;100.00;102361.75;5067526;28;20389;-76
2021/11/09 03:06:31;;;;;;;27.48;10.45;;;;;;;6.97;100.00;102373.91;5067531;28;20063;-76
2021/11/09 03:11:37;;;;;;;24.77;10.10;;;;;;;7.09;100.00;102383.72;5068271;28;20044;-76
2021/11/09 03:14:03;;;;;;;22.83;8.43;;;;;;;7.05;100.00;102376.06;5067314;28;20477;-76
2021/11/09 03:16:32;;;;;;;22.95;8.60;;;;;;;7.07;100.00;102377.69;5067308;28;20047;-76
2021/11/09 03:19:10;;;;;;;25.10;8.82;;;;;;;6.97;100.00;102363.28;5068269;28;20337;-76
2021/11/09 03:46:35;;;;;;;23.98;7.88;;;;;;;6.89;100.00;102416.03;5066572;28;20279;-77
2021/11/09 03:49:02;;;;;;;25.00;8.65;;;;;;;6.92;100.00;102434.41;5083882;28;20020;-76
2021/11/09 03:51:29;;;;;;;22.92;9.15;;;;;;;6.88;100.00;102424.94;5083387;28;20024;-77
2021/11/09 03:53:59;;;;;;;26.00;9.27;;;;;;;6.90;100.00;102433.66;5067613;28;20043;-76
2021/11/09 03:56:41;;;;;;;27.88;9.75;;;;;;;6.96;100.00;102441.25;5083661;28;20037;-76
2021/11/09 03:59:13;;;;;;;36.15;12.15;;;;;;;6.89;100.00;102421.34;5066368;28;20063;-76
2021/11/09 04:01:47;;;;;;;28.75;9.95;;;;;;;6.92;100.00;102437.06;5066448;28;20048;-76
2021/11/09 04:04:27;;;;;;;28.08;10.55;;;;;;;6.92;100.00;102445.88;5066230;28;20028;-76
2021/11/09 04:07:04;;;;;;;34.05;11.40;;;;;;;6.83;100.00;102435.84;5067405;28;20162;-76
2021/11/09 04:12:58;;;;;;;32.30;12.02;;;;;;;6.91;100.00;102451.31;5058615;28;20378;-76
2021/11/09 04:18:22;;;;;;;33.42;11.48;;;;;;;6.90;100.00;102462.84;5067437;28;20067;-76
2021/11/09 04:20:56;;;;;;;37.20;11.55;;;;;;;6.93;100.00;102470.63;5067176;28;20049;-76
2021/11/09 04:31:18;;;;;;;47.13;14.82;;;;;;;6.94;100.00;102490.94;5067442;28;20028;-76
2021/11/09 04:39:48;;;;;;;48.70;15.60;;;;;;;6.92;100.00;102460.97;5067367;28;20044;-76
2021/11/09 05:01:10;;;;;;;36.95;13.70;;;;;;;6.86;100.00;102357.78;5068093;28;20040;-76
2021/11/09 05:01:51;;;;;;;42.95;13.65;;;;;;;6.90;100.00;102351.34;5067857;28;20826;-77
2021/11/09 05:09:43;;;;;;;37.83;14.82;;;;;;;6.82;100.00;102312.03;5068036;28;20037;-76
2021/11/09 05:12:09;;;;;;;40.78;13.30;;;;;;;6.81;100.00;102310.31;5067659;28;20772;-77
2021/11/09 05:14:34;;;;;;;41.30;14.80;;;;;;;6.78;100.00;102299.91;5071751;28;20043;-77
2021/11/09 05:17:01;;;;;;;37.65;13.05;;;;;;;6.85;100.00;102303.00;5070950;28;20299;-76
2021/11/09 05:19:27;;;;;;;;;;;;;;;6.89;100.00;102304.53;5071259;28;20044;-77
2021/11/09 05:21:52;;;;;;;;;;;;;;;6.85;100.00;102293.22;5071322;28;19908;-76
2021/11/09 05:24:18;;;;;;;32.58;10.63;;;;;;;6.79;100.00;102280.38;5071006;28;20007;-76
2021/11/09 05:26:43;;;;;;;38.47;14.18;;;;;;;6.85;100.00;102289.72;5070689;28;20044;-77
2021/11/09 05:29:11;;;;;;;29.73;11.02;;;;;;;6.84;100.00;102272.13;5053892;28;20036;-76
2021/11/09 05:31:37;;;;;;;36.72;13.63;;;;;;;6.83;100.00;102268.59;5070583;28;20135;-76
2021/11/09 05:34:04;;;;;;;28.30;11.77;;;;;;;6.79;100.00;102247.66;5071028;28;20037;-76
2021/11/09 05:36:36;;;;;;;38.38;13.75;;;;;;;6.82;100.00;102260.75;5070374;28;20047;-76
2021/11/09 05:41:36;;;;;;;36.92;11.05;;;;;;;6.79;100.00;102255.63;5070339;28;20537;-76
2021/11/09 05:44:03;;;;;;;34.05;10.32;;;;;;;6.81;100.00;102253.72;5071108;28;20025;-76
2021/11/09 05:46:29;;;;;;;33.20;12.90;;;;;;;6.75;100.00;102252.31;5070274;28;20916;-76
2021/11/09 05:48:54;;;;;;;44.72;13.68;;;;;;;6.75;100.00;102253.16;5070154;28;20036;-76
2021/11/09 05:51:20;;;;;;;31.93;10.40;;;;;;;6.72;100.00;102245.41;5071150;28;20355;-76
2021/11/09 05:53:46;;;;;;;31.85;11.68;;;;;;;6.70;100.00;102251.78;5070043;28;20048;-76
2021/11/09 05:56:12;;;;;;;40.83;11.68;;;;;;;6.72;100.00;102263.16;5070208;28;20044;-76
2021/11/09 05:58:38;;;;;;;39.25;12.52;;;;;;;6.64;100.00;102253.00;5071091;28;20366;-76
2021/11/09 06:01:04;;;;;;;38.55;11.77;;;;;;;6.63;100.00;102264.59;5070901;28;20037;-76
2021/11/09 06:03:29;;;;;;;31.73;11.85;;;;;;;6.68;100.00;102275.75;5069237;28;20049;-76
2021/11/09 06:05:55;;;;;;;44.20;12.30;;;;;;;6.58;100.00;102261.41;5068681;28;20051;-76
2021/11/09 06:08:22;;;;;;;41.30;12.27;;;;;;;6.64;100.00;102270.75;5051944;28;20381;-76
2021/11/09 06:10:47;;;;;;;39.95;11.73;;;;;;;6.72;100.00;102293.19;5068581;28;20078;-76
2021/11/09 06:13:13;;;;;;;46.22;11.50;;;;;;;6.67;100.00;102278.50;5069494;28;20117;-76
2021/11/09 06:15:39;;;;;;;32.58;10.65;;;;;;;6.62;100.00;102272.66;5068453;28;20528;-76
2021/11/09 06:18:04;;;;;;;35.90;11.82;;;;;;;6.63;100.00;102277.88;5069279;28;20436;-76
2021/11/09 06:20:30;;;;;;;37.53;10.80;;;;;;;6.64;100.00;102290.16;5068603;28;20036;-76
2021/11/09 06:22:55;;;;;;;32.57;10.70;;;;;;;6.66;100.00;102296.22;5069546;28;20020;-76
2021/11/09 06:25:23;;;;;;;36.13;12.07;;;;;;;6.58;100.00;102274.66;5051332;28;20343;-76
2021/11/09 06:27:50;;;;;;;33.55;9.10;;;;;;;6.65;100.00;102288.34;5069247;28;20029;-76
2021/11/09 06:30:16;;;;;;;44.20;9.88;;;;;;;6.59;100.00;102292.28;5068282;28;20063;-76
2021/11/09 06:32:42;;;;;;;32.72;10.02;;;;;;;6.60;100.00;102293.13;5069343;28;20458;-76
2021/11/09 06:35:08;;;;;;;37.95;11.70;;;;;;;6.48;100.00;102290.28;5051173;28;20029;-76
2021/11/09 06:37:35;;;;;;;33.75;11.90;;;;;;;6.44;100.00;102285.28;5051580;28;20072;-77
2021/11/09 06:40:01;;;;;;;27.27;9.52;;;;;;;6.47;100.00;102311.66;5068284;28;20052;-76
2021/11/09 06:42:27;;;;;;;46.78;10.20;;;;;;;6.38;100.00;102313.06;5068932;28;20064;-76
2021/11/09 06:44:52;;;;;;;34.75;9.90;;;;;;;6.38;100.00;102312.22;5068636;28;20090;-76
2021/11/09 06:47:18;;;;;;;35.80;11.43;;;;;;;6.49;100.00;102336.28;5084730;28;20410;-76
2021/11/09 06:49:43;;;;;;;39.08;11.05;;;;;;;6.41;100.00;102327.94;5068964;28;20076;-76
2021/11/09 06:52:10;;;;;;;22.03;9.03;;;;;;;6.50;100.00;102340.63;5068866;28;20578;-76
2021/11/09 06:54:36;;;;;;;29.70;10.73;;;;;;;6.49;100.00;102338.94;5068566;28;20024;-76
2021/11/09 06:57:03;;;;;;;33.58;10.27;;;;;;;6.47;100.00;102330.22;5067393;28;20071;-76
2021/11/09 06:59:29;;;;;;;33.40;10.10;;;;;;;6.49;100.00;102345.09;5051004;28;20428;-76
2021/11/09 07:01:54;;;;;;;28.50;10.65;;;;;;;6.57;100.00;102352.56;5067778;28;20113;-77
2021/11/09 07:04:20;;;;;;;27.65;8.18;;;;;;;6.55;100.00;102351.78;5067339;28;20112;-77
2021/11/09 07:06:46;;;;;;;28.90;10.18;;;;;;;6.55;100.00;102349.13;5067575;28;20466;-77
2021/11/09 07:09:13;;;;;;;30.03;9.00;;;;;;;6.57;100.00;102347.25;5068215;28;20032;-77
2021/11/09 07:11:39;;;;;;;30.30;10.38;;;;;;;6.52;100.00;102336.94;5067244;28;20426;-77
2021/11/09 07:14:05;;;;;;;37.80;10.15;;;;;;;6.44;100.00;102315.34;5067091;28;20037;-77
2021/11/09 07:16:31;;;;;;;26.25;9.25;;;;;;;6.50;100.00;102327.34;5068302;28;20081;-77
2021/11/09 07:19:02;;;;;;;25.35;9.25;;;;;;;6.59;100.00;102339.19;5067266;28;20036;-78
2021/11/09 07:21:28;;;;;;;30.95;9.43;;;;;;;6.57;100.00;102328.66;5068164;28;20032;-78
2021/11/09 07:23:54;;;;;;;21.42;8.52;;;;;;;6.69;100.00;102327.03;5066694;28;20517;-78
2021/11/09 07:26:20;;;;;;;24.52;9.13;;;;;;;6.87;100.00;102327.66;5067174;28;20025;-79
2021/11/09 07:28:46;;;;;;;20.55;8.57;;;;;;;7.06;100.00;102322.00;5067039;28;20055;-79
2021/11/09 07:31:14;;;;;;;22.42;8.90;;;;;;;7.44;100.00;102319.41;5067989;28;20079;-79
2021/11/09 07:33:40;;;;;;;18.60;7.18;;;;;;;7.33;100.00;102266.19;5066728;28;20107;-79
2021/11/09 07:36:06;;;;;;;25.95;8.65;;;;;;;7.32;100.00;102244.06;5066224;28;20060;-79
2021/11/09 07:38:31;;;;;;;14.88;6.38;;;;;;;7.20;100.00;102226.28;5050088;28;20051;-80
2021/11/09 07:40:57;;;;;;;16.17;6.47;;;;;;;7.23;100.00;102222.56;5066075;28;20020;-79
2021/11/09 07:43:23;;;;;;;27.83;7.72;;;;;;;7.14;100.00;102200.13;5067620;28;20703;-79
2021/11/09 07:45:48;;;;;;;19.33;6.07;;;;;;;7.17;100.00;102203.44;5067300;28;20481;-80
2021/11/09 07:48:14;;;;;;;15.52;7.07;;;;;;;7.19;100.00;102201.53;5067437;28;20093;-80
2021/11/09 07:50:40;;;;;;;35.72;6.40;;;;;;;7.24;100.00;102193.25;5067239;28;20036;-80
2021/11/09 07:53:08;;;;;;;17.02;6.40;;;;;;;7.32;100.00;102196.22;5066072;28;20040;-80
2021/11/09 07:55:45;;;;;;;19.52;5.80;;;;;;;7.33;100.00;102181.16;5066337;28;20040;-79
2021/11/09 07:58:16;;;;;;;14.95;5.05;;;;;;;7.28;100.00;102180.59;5067176;28;20108;-79
2021/11/09 08:00:45;;;;;;;14.50;5.63;;;;;;;7.49;100.00;102187.09;5066599;28;20358;-79
2021/11/09 08:03:17;;;;;;;14.68;5.68;;;;;;;8.36;100.00;102213.72;5066454;28;20350;-79
2021/11/09 08:08:15;;;;;;;10.07;3.92;;;;;;;9.72;100.00;102218.53;5067052;28;20457;-79
2021/11/09 08:10:41;;;;;;;13.30;4.75;;;;;;;9.73;98.58;102178.38;5067668;28;20067;-80
2021/11/09 08:13:08;;;;;;;17.08;3.35;;;;;;;9.60;96.08;102159.00;5066485;28;20415;-80
2021/11/09 08:15:33;;;;;;;9.05;3.58;;;;;;;10.42;94.17;102187.13;5066337;28;20123;-79
2021/11/09 08:17:59;;;;;;;11.85;3.63;;;;;;;10.57;90.68;102149.34;5066184;28;20135;-80
2021/11/09 08:20:25;;;;;;;9.88;2.78;;;;;;;10.62;89.46;102140.09;5066438;28;20147;-80
2021/11/09 08:22:50;;;;;;;10.23;2.90;;;;;;;11.41;86.96;102156.50;5067375;28;20028;-80
2021/11/09 08:25:16;;;;;;;4.83;2.57;;;;;;;10.51;87.68;102149.88;5065520;28;20048;-79
2021/11/09 08:27:42;;;;;;;7.18;2.38;;;;;;;11.24;86.03;102152.63;5067250;28;20024;-80
2021/11/09 08:30:08;;;;;;;10.23;2.80;;;;;;;10.23;87.12;102135.25;5066228;28;20424;-80
2021/11/09 08:32:33;;;;;;;10.82;2.78;;;;;;;9.99;88.77;102142.59;5066527;28;20032;-81
2021/11/09 08:35:00;;;;;;;12.17;4.00;;;;;;;10.42;88.14;102150.63;5066031;28;20036;-80
2021/11/09 08:37:25;;;;;;;11.50;4.15;;;;;;;10.93;87.21;102160.59;5066023;28;20352;-80
2021/11/09 08:39:51;;;;;;;11.70;2.93;;;;;;;10.97;87.01;102170.00;5066321;28;20024;-81
2021/11/09 08:47:15;;;;;;;7.97;3.25;;;;;;;11.61;85.33;102181.47;5066601;28;20033;-81
2021/11/09 08:49:42;;;;;;;7.82;2.47;;;;;;;11.81;83.68;102156.50;5071316;28;20038;-81
2021/11/09 08:52:11;;;;;;;9.32;2.17;;;;;;;11.60;82.66;102131.66;5070320;28;20043;-81
2021/11/09 08:54:36;;;;;;;8.30;2.95;;;;;;;12.20;83.16;102178.06;5070472;28;20029;-80
2021/11/09 09:05:26;;;;;;;16.45;3.78;;;;;;;9.36;90.26;102153.78;5071046;28;20109;-81
2021/11/09 09:07:53;;;;;;;7.65;3.28;;;;;;;8.91;93.25;102174.19;5070952;28;20032;-81
2021/11/09 09:10:18;;;;;;;11.90;4.03;;;;;;;9.14;94.62;102193.72;5074543;28;20017;-81
2021/11/09 09:12:45;;;;;;;9.38;3.70;;;;;;;9.05;94.58;102180.13;5072302;28;20110;-83
2021/11/09 09:15:15;;;;;;;5.03;3.05;;;;;;;9.06;95.42;102208.50;5070873;28;20041;-82
2021/11/09 09:17:41;;;;;;;7.82;3.75;;;;;;;9.15;95.67;102198.94;5071122;28;20086;-81
2021/11/09 09:20:39;;;;;;;10.65;4.20;;;;;;;9.15;95.88;102196.25;5071476;28;20033;-83
2021/11/09 09:25:33;;;;;;;12.67;4.73;;;;;;;8.93;97.42;102206.88;5070777;28;20102;-83
2021/11/09 09:28:21;;;;;;;11.02;3.60;;;;;;;8.91;97.42;102196.31;5069924;28;20085;-82
2021/11/09 09:33:29;;;;;;;6.70;4.10;;;;;;;9.07;98.20;102198.69;5069756;28;20462;-82
2021/11/09 09:52:39;;;;;;;17.23;6.10;;;;;;;9.53;95.14;102179.13;5069773;28;20119;-83
2021/11/09 09:57:49;;;;;;;14.82;6.53;;;;;;;9.41;95.66;102185.41;5069554;28;20047;-82
2021/11/09 10:00:15;;;;;;;17.15;7.72;;;;;;;9.44;95.60;102180.69;5069420;28;20020;-82
2021/11/09 10:02:54;;;;;;;;;;;;;;;9.34;96.10;102186.84;5053515;28;20170;-82
2021/11/09 10:05:22;;;;;;;17.20;9.00;;;;;;;9.38;96.21;102190.97;5069254;28;19916;-82
2021/11/09 10:07:54;;;;;;;19.95;7.20;;;;;;;9.45;95.82;102186.88;5069431;28;20033;-82
2021/11/09 10:10:22;;;;;;;18.92;8.55;;;;;;;9.62;95.44;102194.41;5069387;28;20044;-83
2021/11/09 10:12:55;;;;;;;26.33;9.07;;;;;;;9.85;95.03;102199.72;5070378;28;20051;-83
2021/11/09 10:15:26;;;;;;;19.40;8.13;;;;;;;9.67;94.12;102184.22;5069175;28;20504;-83
2021/11/09 10:17:53;;;;;;;18.83;8.77;;;;;;;9.62;94.27;102177.53;5052681;28;20462;-83
2021/11/09 10:20:24;;;;;;;18.92;8.55;;;;;;;9.52;94.50;102180.94;5052897;28;20055;-83
2021/11/09 10:22:54;;;;;;;20.02;8.40;;;;;;;9.35;94.43;102159.25;5069163;28;20090;-82
2021/11/09 10:25:21;;;;;;;21.70;8.60;;;;;;;9.63;94.79;102188.09;5068880;28;20488;-83
2021/11/09 10:27:50;;;;;;;24.55;9.05;;;;;;;9.66;94.50;102187.00;5070010;28;20068;-83
2021/11/09 10:30:17;;;;;;;23.85;9.23;;;;;;;9.84;93.91;102195.38;5070204;28;20103;-83
2021/11/09 10:32:45;;;;;;;32.08;9.88;;;;;;;9.72;92.91;102173.19;5069177;28;20036;-82
2021/11/09 10:35:15;;;;;;;19.55;8.32;;;;;;;9.76;92.90;102179.94;5068781;28;20028;-82
2021/11/09 10:37:47;;;;;;;28.33;9.38;;;;;;;10.03;92.13;102182.22;5069700;28;20346;-82
2021/11/09 10:40:16;;;;;;;23.75;8.95;;;;;;;9.96;91.81;102182.88;5070080;28;20036;-82
2021/11/09 10:42:44;;;;;;;18.67;9.05;;;;;;;10.20;90.45;102178.19;5069793;28;20365;-83
2021/11/09 10:45:13;;;;;;;22.58;8.18;;;;;;;10.34;89.74;102169.94;5068391;28;20039;-82
2021/11/09 10:47:42;;;;;;;21.20;8.75;;;;;;;10.58;88.03;102158.19;5068502;28;20020;-82
2021/11/09 10:50:12;;;;;;;21.50;8.00;;;;;;;10.88;87.50;102161.94;5068546;28;20040;-83
2021/11/09 10:52:39;;;;;;;22.20;8.05;;;;;;;10.63;85.95;102117.75;5068278;28;20469;-82
2021/11/09 10:55:25;;;;;;;18.73;7.80;;;;;;;10.86;85.67;102138.00;5068142;28;20040;-82
2021/11/09 10:58:13;;;;;;;13.50;6.32;;;;;;;10.92;83.62;102120.63;5068341;28;20135;-83
2021/11/09 11:03:16;;;;;;;23.10;8.88;;;;;;;10.61;83.74;102109.88;5068650;28;20651;-82
2021/11/09 11:03:58;;;;;;;21.60;6.90;;;;;;;10.73;82.52;102087.47;5068903;28;20035;-81
2021/11/09 11:06:27;;;;;;;20.75;6.35;;;;;;;10.89;82.62;102105.72;5068422;28;20084;-82
2021/11/09 11:08:54;;;;;;;21.70;7.05;;;;;;;10.42;82.90;102102.56;5069199;28;20062;-83
2021/11/09 11:11:28;;;;;;;26.73;7.80;;;;;;;10.35;83.10;102088.03;5067230;28;20079;-82
2021/11/09 11:14:06;;;;;;;22.48;7.65;;;;;;;10.33;83.27;102104.19;5068071;28;20446;-82
2021/11/09 11:16:38;;;;;;;24.02;7.43;;;;;;;10.51;83.02;102106.28;5068052;28;20082;-83
2021/11/09 11:19:04;;;;;;;18.83;7.22;;;;;;;10.56;82.44;102102.25;5085146;28;20422;-82
2021/11/09 11:21:30;;;;;;;18.75;7.13;;;;;;;10.03;82.09;102064.84;5067748;28;20294;-82
2021/11/09 11:23:56;;;;;;;22.17;6.23;;;;;;;10.12;82.66;102080.09;5068137;28;20128;-82
2021/11/09 11:26:22;;;;;;;18.17;6.40;;;;;;;10.01;82.49;102071.28;5067904;28;20063;-81
2021/11/09 11:28:51;;;;;;;17.10;6.45;;;;;;;10.24;82.38;102085.38;5067510;28;20048;-80
2021/11/09 11:31:18;;;;;;;29.38;8.20;;;;;;;10.07;81.28;102049.44;5067407;28;20470;-80
2021/11/09 11:33:43;;;;;;;24.67;7.70;;;;;;;10.07;81.97;102071.63;5068510;28;20151;-81
2021/11/09 11:36:10;;;;;;;22.23;7.57;;;;;;;10.30;82.19;102095.56;5067743;28;20127;-83
2021/11/09 11:38:40;;;;;;;16.35;6.20;;;;;;;10.12;82.16;102068.56;5068251;28;20052;-81
2021/11/09 11:41:05;;;;;;;23.50;6.57;;;;;;;10.23;82.29;102076.53;5068662;28;20104;-81
2021/11/09 11:43:43;;;;;;;23.08;6.93;;;;;;;10.38;82.04;102092.28;5068275;28;20119;-82
2021/11/09 11:46:36;;;;;;;15.73;7.05;;;;;;;10.39;81.29;102069.94;5068619;28;20469;-81
2021/11/09 11:49:07;;;;;;;18.88;6.50;;;;;;;10.46;81.88;102084.47;5067828;28;20047;-80
2021/11/09 11:51:36;;;;;;;22.77;6.80;;;;;;;10.58;81.48;102088.75;5067788;28;20350;-82
2021/11/09 11:54:02;;;;;;;20.85;7.50;;;;;;;10.52;82.01;102076.78;5067334;28;20083;-81
2021/11/09 11:56:43;;;;;;;23.77;6.88;;;;;;;10.50;81.52;102062.72;5068130;28;20029;-81
2021/11/09 11:59:18;;;;;;;20.27;7.78;;;;;;;10.22;80.79;102047.28;5066512;28;20190;-79
2021/11/09 12:01:45;;;;;;;18.92;7.57;;;;;;;10.14;81.13;102046.13;5064058;28;20062;-80
2021/11/09 12:04:43;;;;;;;27.83;9.15;;;;;;;10.21;81.38;102045.59;5073577;28;20461;-80
2021/11/09 12:07:19;;;;;;;25.02;7.53;;;;;;;10.31;81.62;102049.22;5090142;28;20019;-79
2021/11/09 12:09:47;;;;;;;18.33;7.55;;;;;;;10.09;81.83;102048.31;5088676;28;20298;-80
2021/11/09 12:12:19;;;;;;;19.02;7.90;;;;;;;10.08;82.05;102054.63;5073014;28;20026;-80
2021/11/09 12:14:49;;;;;;;27.15;9.60;;;;;;;10.19;81.70;102055.56;5094910;28;20085;-79
2021/11/09 12:17:34;;;;;;;24.88;7.57;;;;;;;10.20;81.95;102057.25;5086681;28;20789;-80
2021/11/09 12:20:04;;;;;;;;;;;;;;;10.33;82.15;102055.28;5076484;28;20411;-79
2021/11/09 12:22:39;;;;;;;24.65;8.52;;;;;;;10.31;81.81;102035.88;5074357;28;19969;-79
2021/11/09 12:25:07;;;;;;;27.10;7.20;;;;;;;10.20;81.74;102034.06;5090745;28;20039;-79
2021/11/09 12:27:57;;;;;;;27.50;8.18;;;;;;;10.18;81.83;102044.03;5092678;28;20064;-80
2021/11/09 12:30:38;;;;;;;23.70;8.40;;;;;;;10.06;81.02;102000.53;5091190;28;20051;-79
2021/11/09 12:33:10;;;;;;;22.88;8.32;;;;;;;10.21;81.15;102024.22;5091928;28;20641;-79
2021/11/09 12:35:36;;;;;;;22.75;7.60;;;;;;;10.13;80.82;102003.53;5095026;28;20047;-80
2021/11/09 12:38:01;;;;;;;16.75;7.05;;;;;;;10.20;80.46;101998.53;5095165;28;20080;-79
2021/11/09 12:40:51;;;;;;;20.87;7.93;;;;;;;10.03;80.69;101992.78;5090919;28;20040;-79
2021/11/09 12:43:32;;;;;;;19.15;7.32;;;;;;;10.08;80.93;102003.91;5067120;28;20045;-79
2021/11/09 12:46:37;;;;;;;28.60;6.97;;;;;;;10.24;81.43;102018.66;5067583;28;20028;-79
2021/11/09 12:49:07;;;;;;;24.95;6.53;;;;;;;10.20;81.18;101996.72;5064068;28;20052;-79
2021/11/09 12:51:36;;;;;;;23.00;7.47;;;;;;;10.07;81.87;102010.25;5066102;28;20472;-79
2021/11/09 12:54:05;;;;;;;29.90;7.50;;;;;;;10.26;81.31;102011.38;5048690;28;20056;-79
2021/11/09 12:56:38;;;;;;;23.83;6.88;;;;;;;10.52;81.11;102007.34;5048978;28;20412;-79
2021/11/09 12:59:28;;;;;;;21.83;7.13;;;;;;;10.75;80.13;102004.53;5048828;28;20449;-79
2021/11/09 13:02:09;;;;;;;20.42;6.13;;;;;;;10.46;79.12;101954.47;5067103;28;20066;-79
2021/11/09 13:07:32;;;;;;;21.42;6.88;;;;;;;10.89;78.75;101980.13;5066855;28;20047;-79
2021/11/09 13:10:28;;;;;;;19.58;5.65;;;;;;;10.75;78.00;101953.78;5065907;28;20047;-79
2021/11/09 13:12:54;;;;;;;15.35;5.75;;;;;;;10.88;77.93;101962.41;5065824;28;20028;-79
2021/11/09 13:15:22;;;;;;;18.90;5.27;;;;;;;10.83;77.50;101959.28;5065571;28;20039;-79
2021/11/09 13:18:03;;;;;;;19.15;6.05;;;;;;;10.75;75.90;101937.75;5066512;28;20101;-79
2021/11/09 13:23:02;;;;;;;20.33;5.57;;;;;;;10.72;75.63;101938.00;5066641;28;20060;-79
2021/11/09 13:25:46;;;;;;;13.70;4.97;;;;;;;10.78;75.13;101945.50;5065932;28;20040;-79
2021/11/09 13:28:11;;;;;;;16.70;5.78;;;;;;;10.71;75.41;101945.19;5066626;28;20032;-79
2021/11/09 13:30:37;;;;;;;19.90;5.77;;;;;;;10.74;75.50;101957.41;5048844;28;20063;-79
2021/11/09 13:33:02;;;;;;;23.15;5.75;;;;;;;10.66;75.40;101939.41;5065523;28;20340;-78
2021/11/09 13:35:31;;;;;;;23.43;6.60;;;;;;;10.55;75.05;101921.63;5068990;28;20518;-78